createdAt,value
2016-12-06T00:00:24.779Z,2.4
2016-12-06T00:01:30.777Z,2.5
2016-12-06T00:02:36.777Z,2.5
2016-12-06T00:03:42.778Z,2.4
2016-12-06T00:04:48.777Z,2.4
2016-12-06T00:05:54.773Z,2.4
2016-12-06T00:07:00.770Z,2.5
2016-12-06T00:08:06.777Z,2.5
2016-12-06T00:09:12.767Z,2.4
2016-12-06T00:10:18.771Z,2.3
2016-12-06T00:11:24.758Z,2.3
2016-12-06T00:12:30.767Z,2.3
2016-12-06T00:13:36.770Z,2.4
2016-12-06T00:14:42.761Z,2.4
2016-12-06T00:15:48.769Z,2.4
2016-12-06T00:16:54.771Z,2.4
2016-12-06T00:18:00.767Z,2.4
2016-12-06T00:19:06.763Z,2.4
2016-12-06T00:20:12.770Z,2.4
2016-12-06T00:21:18.769Z,2.4
2016-12-06T00:22:24.773Z,2.4
2016-12-06T00:23:30.772Z,2.4
2016-12-06T00:24:36.777Z,2.4
2016-12-06T00:25:42.772Z,2.3
2016-12-06T00:26:48.783Z,2.3
2016-12-06T00:27:54.790Z,2.4
2016-12-06T00:29:00.796Z,2.4
2016-12-06T00:30:06.806Z,2.4
2016-12-06T00:31:12.795Z,2.4
2016-12-06T00:32:18.791Z,2.4
2016-12-06T00:33:24.800Z,2.4
2016-12-06T00:34:30.805Z,2.4
2016-12-06T00:35:36.804Z,2.4
2016-12-06T00:36:42.806Z,2.4
2016-12-06T00:37:48.803Z,2.4
2016-12-06T00:38:54.801Z,2.4
2016-12-06T00:40:00.803Z,2.4
2016-12-06T00:41:06.802Z,2.4
2016-12-06T00:42:12.802Z,2.4
2016-12-06T00:43:18.817Z,2.4
2016-12-06T00:44:24.814Z,2.4
2016-12-06T00:45:30.814Z,2.4
2016-12-06T00:46:36.837Z,2.4
2016-12-06T00:47:42.821Z,2.5
2016-12-06T00:48:48.820Z,2.5
2016-12-06T00:49:54.825Z,2.5
2016-12-06T00:51:00.831Z,2.5
2016-12-06T00:52:06.817Z,2.5
2016-12-06T00:53:12.862Z,2.5
2016-12-06T00:54:18.868Z,2.6
2016-12-06T00:55:24.867Z,2.5
2016-12-06T00:56:30.869Z,2.6
2016-12-06T00:57:36.862Z,2.5
2016-12-06T00:58:42.860Z,2.6
2016-12-06T00:59:48.857Z,2.5
2016-12-06T01:00:54.862Z,2.5
2016-12-06T01:02:04.969Z,2.5
2016-12-06T01:03:26.701Z,2.6
2016-12-06T01:04:40.731Z,2.6
2016-12-06T01:05:55.993Z,2.6
2016-12-06T01:07:08.523Z,2.6
2016-12-06T01:08:13.198Z,2.6
2016-12-06T01:09:18.568Z,2.5
2016-12-06T01:10:35.368Z,2.5
2016-12-06T01:11:48.455Z,2.5
2016-12-06T01:12:54.960Z,2.5
2016-12-06T01:14:04.727Z,2.6
2016-12-06T01:15:20.098Z,2.6
2016-12-06T01:16:37.247Z,2.6
2016-12-06T01:17:45.737Z,2.6
2016-12-06T01:18:50.224Z,2.6
2016-12-06T01:20:01.628Z,2.6
2016-12-06T01:21:07.633Z,2.6
2016-12-06T01:22:13.632Z,2.6
2016-12-06T01:23:19.631Z,2.6
2016-12-06T01:24:25.635Z,2.7
2016-12-06T01:25:31.637Z,2.7
2016-12-06T01:26:37.849Z,2.7
2016-12-06T01:27:43.967Z,2.7
2016-12-06T01:28:49.965Z,2.7
2016-12-06T01:29:56.041Z,2.7
2016-12-06T01:31:02.041Z,2.6
2016-12-06T01:32:08.052Z,2.7
2016-12-06T01:33:14.053Z,2.7
2016-12-06T01:34:20.088Z,2.7
2016-12-06T01:35:26.081Z,2.7
2016-12-06T01:36:32.118Z,2.7
2016-12-06T01:37:38.109Z,2.8
2016-12-06T01:38:44.108Z,2.8
2016-12-06T01:39:50.105Z,2.8
2016-12-06T01:40:56.179Z,2.8
2016-12-06T01:42:02.182Z,2.8
2016-12-06T01:43:08.227Z,2.8
2016-12-06T01:44:14.232Z,2.8
2016-12-06T01:45:20.241Z,2.8
2016-12-06T01:46:26.243Z,2.8
2016-12-06T01:47:32.245Z,2.8
2016-12-06T01:48:38.241Z,2.8
2016-12-06T01:49:44.282Z,2.8
2016-12-06T01:50:50.285Z,2.8
2016-12-06T01:51:56.306Z,2.8
2016-12-06T01:53:02.298Z,2.8
2016-12-06T01:54:08.341Z,2.8
2016-12-06T01:55:14.338Z,2.8
2016-12-06T01:56:20.349Z,2.8
2016-12-06T01:57:26.341Z,2.8
2016-12-06T01:58:32.368Z,2.8
2016-12-06T01:59:38.374Z,2.8
2016-12-06T02:00:44.363Z,2.8
2016-12-06T02:01:50.367Z,2.8
2016-12-06T02:02:56.367Z,2.8
2016-12-06T02:04:02.368Z,2.8
2016-12-06T02:05:08.598Z,2.8
2016-12-06T02:06:14.596Z,2.9
2016-12-06T02:07:20.710Z,2.9
2016-12-06T02:08:26.714Z,2.9
2016-12-06T02:09:32.708Z,2.9
2016-12-06T02:10:38.709Z,2.8
2016-12-06T02:11:44.713Z,2.8
2016-12-06T02:12:50.707Z,2.8
2016-12-06T02:13:56.833Z,2.8
2016-12-06T02:15:02.839Z,2.8
2016-12-06T02:16:08.835Z,2.8
2016-12-06T02:17:14.831Z,2.8
2016-12-06T02:18:20.959Z,2.8
2016-12-06T02:19:26.965Z,2.8
2016-12-06T02:20:32.963Z,2.7
2016-12-06T02:21:38.955Z,2.8
2016-12-06T02:22:44.961Z,2.8
2016-12-06T02:23:50.965Z,2.7
2016-12-06T02:24:56.963Z,2.7
2016-12-06T02:26:02.969Z,2.8
2016-12-06T02:27:09.096Z,2.8
2016-12-06T02:28:14.980Z,2.8
2016-12-06T02:29:20.979Z,2.8
2016-12-06T02:30:26.973Z,2.8
2016-12-06T02:31:32.969Z,2.9
2016-12-06T02:32:39.147Z,2.9
2016-12-06T02:33:44.989Z,2.9
2016-12-06T02:34:50.985Z,2.8
2016-12-06T02:35:56.986Z,2.8
2016-12-06T02:37:02.986Z,2.8
2016-12-06T02:38:09.243Z,2.8
2016-12-06T02:39:15.056Z,2.8
2016-12-06T02:40:21.057Z,2.8
2016-12-06T02:41:27.061Z,2.8
2016-12-06T02:42:33.054Z,2.8
2016-12-06T02:43:39.049Z,2.8
2016-12-06T02:44:45.054Z,2.8
2016-12-06T02:45:51.056Z,2.8
2016-12-06T02:46:57.047Z,2.8
2016-12-06T02:48:03.045Z,2.8
2016-12-06T02:49:09.052Z,2.8
2016-12-06T02:50:15.057Z,2.8
2016-12-06T02:51:21.057Z,2.8
2016-12-06T02:52:27.065Z,2.8
2016-12-06T02:53:33.057Z,2.8
2016-12-06T02:54:39.063Z,2.8
2016-12-06T02:55:45.061Z,2.9
2016-12-06T02:56:51.077Z,2.9
2016-12-06T02:57:57.062Z,2.9
2016-12-06T02:59:03.060Z,2.8
2016-12-06T03:00:09.059Z,2.8
2016-12-06T03:01:15.058Z,2.8
2016-12-06T03:02:21.058Z,2.8
2016-12-06T03:03:27.057Z,2.8
2016-12-06T03:04:33.066Z,2.8
2016-12-06T03:05:39.062Z,2.9
2016-12-06T03:06:45.057Z,2.9
2016-12-06T03:07:51.054Z,2.9
2016-12-06T03:08:57.058Z,2.9
2016-12-06T03:10:03.062Z,2.9
2016-12-06T03:11:09.062Z,2.9
2016-12-06T03:12:15.065Z,2.9
2016-12-06T03:13:21.065Z,2.9
2016-12-06T03:14:27.064Z,2.8
2016-12-06T03:15:33.062Z,2.9
2016-12-06T03:16:38.306Z,2.8
2016-12-06T03:17:44.308Z,2.8
2016-12-06T03:18:50.316Z,2.8
2016-12-06T03:19:56.312Z,2.8
2016-12-06T03:21:02.316Z,2.9
2016-12-06T03:22:08.312Z,2.9
2016-12-06T03:23:13.209Z,2.9
2016-12-06T03:24:19.208Z,2.9
2016-12-06T03:25:25.199Z,2.9
2016-12-06T03:26:31.204Z,2.9
2016-12-06T03:27:37.201Z,2.9
2016-12-06T03:28:43.200Z,2.8
2016-12-06T03:29:49.200Z,2.8
2016-12-06T03:30:55.203Z,2.8
2016-12-06T03:32:01.199Z,2.8
2016-12-06T03:33:07.192Z,2.8
2016-12-06T03:34:13.193Z,2.9
2016-12-06T03:35:19.198Z,2.9
2016-12-06T03:36:25.200Z,2.9
2016-12-06T03:37:31.195Z,2.9
2016-12-06T03:38:37.199Z,2.9
2016-12-06T03:39:43.197Z,3
2016-12-06T03:40:49.194Z,3
2016-12-06T03:41:55.194Z,2.9
2016-12-06T03:43:01.198Z,3
2016-12-06T03:44:07.193Z,2.9
2016-12-06T03:45:13.184Z,2.9
2016-12-06T03:46:19.188Z,2.9
2016-12-06T03:47:25.288Z,2.9
2016-12-06T03:48:31.290Z,2.9
2016-12-06T03:49:37.281Z,2.9
2016-12-06T03:50:43.288Z,2.9
2016-12-06T03:51:49.281Z,2.9
2016-12-06T03:52:55.280Z,2.8
2016-12-06T03:54:01.270Z,2.9
2016-12-06T03:55:07.275Z,2.9
2016-12-06T03:56:13.278Z,2.9
2016-12-06T03:57:19.276Z,2.9
2016-12-06T03:58:25.269Z,2.9
2016-12-06T03:59:31.264Z,2.9
2016-12-06T04:00:37.260Z,2.9
2016-12-06T04:01:43.262Z,2.9
2016-12-06T04:02:49.259Z,3
2016-12-06T04:03:55.258Z,3
2016-12-06T04:05:01.251Z,3
2016-12-06T04:06:07.251Z,2.9
2016-12-06T04:07:13.253Z,2.9
2016-12-06T04:08:19.256Z,2.9
2016-12-06T04:09:25.253Z,2.9
2016-12-06T04:10:31.246Z,2.9
2016-12-06T04:11:37.245Z,2.9
2016-12-06T04:12:43.244Z,2.9
2016-12-06T04:13:49.240Z,2.9
2016-12-06T04:14:55.237Z,2.9
2016-12-06T04:16:01.237Z,2.8
2016-12-06T04:17:07.242Z,2.9
2016-12-06T04:18:13.236Z,2.9
2016-12-06T04:19:19.234Z,2.9
2016-12-06T04:20:25.232Z,2.9
2016-12-06T04:21:31.238Z,2.9
2016-12-06T04:22:37.228Z,2.9
2016-12-06T04:23:43.221Z,2.9
2016-12-06T04:24:49.222Z,2.9
2016-12-06T04:25:55.222Z,2.9
2016-12-06T04:27:01.221Z,3
2016-12-06T04:28:07.222Z,2.9
2016-12-06T04:29:13.222Z,2.9
2016-12-06T04:30:19.228Z,2.9
2016-12-06T04:31:25.226Z,2.9
2016-12-06T04:32:31.227Z,2.9
2016-12-06T04:33:37.227Z,3
2016-12-06T04:34:43.226Z,2.9
2016-12-06T04:35:49.234Z,2.9
2016-12-06T04:36:55.233Z,2.9
2016-12-06T04:38:01.233Z,2.9
2016-12-06T04:39:07.231Z,2.9
2016-12-06T04:40:13.237Z,2.9
2016-12-06T04:41:19.239Z,2.9
2016-12-06T04:42:25.234Z,2.9
2016-12-06T04:43:31.234Z,2.9
2016-12-06T04:44:37.225Z,2.9
2016-12-06T04:45:43.232Z,3
2016-12-06T04:46:49.232Z,3
2016-12-06T04:47:55.237Z,2.9
2016-12-06T04:49:01.231Z,2.9
2016-12-06T04:50:07.237Z,2.9
2016-12-06T04:51:13.235Z,2.9
2016-12-06T04:52:19.232Z,2.9
2016-12-06T04:53:25.223Z,3
2016-12-06T04:54:31.228Z,3
2016-12-06T04:55:37.233Z,3
2016-12-06T04:56:43.231Z,3
2016-12-06T04:57:49.225Z,3
2016-12-06T04:58:55.224Z,3
2016-12-06T05:00:01.224Z,3
2016-12-06T05:01:07.224Z,3
2016-12-06T05:02:13.237Z,3
2016-12-06T05:03:18.487Z,3
2016-12-06T05:04:24.486Z,3
2016-12-06T05:05:30.481Z,3
2016-12-06T05:06:36.489Z,3
2016-12-06T05:07:42.493Z,3
2016-12-06T05:08:48.486Z,3
2016-12-06T05:09:54.479Z,3
2016-12-06T05:11:00.480Z,3
2016-12-06T05:12:06.479Z,3.1
2016-12-06T05:13:12.467Z,3.1
2016-12-06T05:14:18.472Z,3.1
2016-12-06T05:15:24.478Z,3.1
2016-12-06T05:16:30.478Z,3.1
2016-12-06T05:17:36.571Z,3.1
2016-12-06T05:18:42.576Z,3.1
2016-12-06T05:19:48.570Z,3.1
2016-12-06T05:20:54.575Z,3.1
2016-12-06T05:22:00.576Z,3.1
2016-12-06T05:23:06.584Z,3.2
2016-12-06T05:24:12.582Z,3.2
2016-12-06T05:25:18.580Z,3.2
2016-12-06T05:26:24.588Z,3.2
2016-12-06T05:27:30.593Z,3.2
2016-12-06T05:28:36.593Z,3.2
2016-12-06T05:29:42.586Z,3.2
2016-12-06T05:30:48.586Z,3.2
2016-12-06T05:31:54.594Z,3.2
2016-12-06T05:33:00.593Z,3.2
2016-12-06T05:34:06.595Z,3.2
2016-12-06T05:35:12.593Z,3.2
2016-12-06T05:36:18.594Z,3.2
2016-12-06T05:37:24.589Z,3.2
2016-12-06T05:38:30.587Z,3.2
2016-12-06T05:39:36.589Z,3.2
2016-12-06T05:40:42.588Z,3.2
2016-12-06T05:41:48.585Z,3.2
2016-12-06T05:42:54.586Z,3.3
2016-12-06T05:44:00.584Z,3.3
2016-12-06T05:45:05.848Z,3.3
2016-12-06T05:46:11.851Z,3.3
2016-12-06T05:47:17.849Z,3.3
2016-12-06T05:48:23.850Z,3.3
2016-12-06T05:49:29.853Z,3.3
2016-12-06T05:50:35.852Z,3.3
2016-12-06T05:51:41.851Z,3.3
2016-12-06T05:52:47.851Z,3.3
2016-12-06T05:53:53.856Z,3.3
2016-12-06T05:54:59.850Z,3.3
2016-12-06T05:56:05.853Z,3.3
2016-12-06T05:57:11.858Z,3.3
2016-12-06T05:58:17.857Z,3.3
2016-12-06T05:59:23.857Z,3.3
2016-12-06T06:00:29.860Z,3.3
2016-12-06T06:01:35.859Z,3.3
2016-12-06T06:02:41.855Z,3.3
2016-12-06T06:03:47.854Z,3.4
2016-12-06T06:04:53.852Z,3.4
2016-12-06T06:05:59.850Z,3.3
2016-12-06T06:07:05.848Z,3.3
2016-12-06T06:08:11.854Z,3.3
2016-12-06T06:09:17.855Z,3.4
2016-12-06T06:10:23.857Z,3.4
2016-12-06T06:11:29.854Z,3.3
2016-12-06T06:12:35.852Z,3.3
2016-12-06T06:13:41.859Z,3.3
2016-12-06T06:14:47.860Z,3.3
2016-12-06T06:15:53.859Z,3.3
2016-12-06T06:16:59.854Z,3.3
2016-12-06T06:18:05.859Z,3.3
2016-12-06T06:19:11.855Z,3.3
2016-12-06T06:20:17.850Z,3.3
2016-12-06T06:21:23.844Z,3.3
2016-12-06T06:22:29.851Z,3.3
2016-12-06T06:23:35.845Z,3.3
2016-12-06T06:24:41.848Z,3.3
2016-12-06T06:25:47.848Z,3.3
2016-12-06T06:26:53.851Z,3.2
2016-12-06T06:27:59.851Z,3.3
2016-12-06T06:29:05.852Z,3.3
2016-12-06T06:30:11.857Z,3.3
2016-12-06T06:31:17.847Z,3.4
2016-12-06T06:32:23.842Z,3.4
2016-12-06T06:33:29.846Z,3.4
2016-12-06T06:34:35.855Z,3.4
2016-12-06T06:35:41.858Z,3.4
2016-12-06T06:36:47.859Z,3.5
2016-12-06T06:37:53.853Z,3.6
2016-12-06T06:38:59.849Z,3.7
2016-12-06T06:40:05.840Z,3.7
2016-12-06T06:41:11.833Z,3.7
2016-12-06T06:42:17.842Z,3.7
2016-12-06T06:43:23.842Z,3.6
2016-12-06T06:44:29.841Z,3.6
2016-12-06T06:45:35.836Z,3.6
2016-12-06T06:46:41.846Z,3.6
2016-12-06T06:47:47.845Z,3.6
2016-12-06T06:48:53.845Z,3.6
2016-12-06T06:49:59.837Z,3.5
2016-12-06T06:51:05.848Z,3.5
2016-12-06T06:52:11.850Z,3.5
2016-12-06T06:53:17.847Z,3.5
2016-12-06T06:54:23.858Z,3.5
2016-12-06T06:55:29.855Z,3.5
2016-12-06T06:56:35.860Z,3.5
2016-12-06T06:57:41.858Z,3.6
2016-12-06T06:58:47.866Z,3.7
2016-12-06T06:59:53.863Z,3.7
2016-12-06T07:00:59.861Z,3.6
2016-12-06T07:02:05.859Z,3.6
2016-12-06T07:03:11.855Z,3.6
2016-12-06T07:04:17.855Z,3.6
2016-12-06T07:05:23.857Z,3.6
2016-12-06T07:06:29.848Z,3.7
2016-12-06T07:07:35.850Z,3.7
2016-12-06T07:08:41.852Z,3.6
2016-12-06T07:09:47.851Z,3.6
2016-12-06T07:10:53.846Z,3.6
2016-12-06T07:11:59.848Z,3.6
2016-12-06T07:13:05.854Z,3.6
2016-12-06T07:14:11.853Z,3.5
2016-12-06T07:15:17.850Z,3.5
2016-12-06T07:16:23.846Z,3.5
2016-12-06T07:17:29.841Z,3.5
2016-12-06T07:18:35.840Z,3.6
2016-12-06T07:19:41.841Z,3.6
2016-12-06T07:20:47.844Z,3.6
2016-12-06T07:21:53.853Z,3.5
2016-12-06T07:22:59.857Z,3.5
2016-12-06T07:24:05.852Z,3.6
2016-12-06T07:25:11.848Z,3.5
2016-12-06T07:26:17.849Z,3.5
2016-12-06T07:27:23.848Z,3.5
2016-12-06T07:28:29.841Z,3.5
2016-12-06T07:29:35.844Z,3.5
2016-12-06T07:30:41.849Z,3.6
2016-12-06T07:31:47.854Z,3.6
2016-12-06T07:32:53.846Z,3.6
2016-12-06T07:33:59.844Z,3.6
2016-12-06T07:35:05.844Z,3.6
2016-12-06T07:36:11.846Z,3.5
2016-12-06T07:37:17.838Z,3.6
2016-12-06T07:38:23.841Z,3.6
2016-12-06T07:39:29.842Z,3.6
2016-12-06T07:40:35.835Z,3.6
2016-12-06T07:41:41.842Z,3.6
2016-12-06T07:42:47.842Z,3.6
2016-12-06T07:43:53.844Z,3.6
2016-12-06T07:44:59.837Z,3.7
2016-12-06T07:46:05.846Z,3.7
2016-12-06T07:47:11.843Z,3.7
2016-12-06T07:48:17.842Z,3.7
2016-12-06T07:49:23.833Z,3.7
2016-12-06T07:50:29.838Z,3.7
2016-12-06T07:51:35.841Z,3.8
2016-12-06T07:52:41.841Z,3.8
2016-12-06T07:53:47.834Z,3.8
2016-12-06T07:54:53.830Z,3.9
2016-12-06T07:55:59.829Z,3.9
2016-12-06T07:57:05.828Z,3.8
2016-12-06T07:58:11.836Z,3.8
2016-12-06T07:59:17.835Z,3.8
2016-12-06T08:00:23.839Z,3.8
2016-12-06T08:01:29.841Z,3.8
2016-12-06T08:02:35.840Z,3.8
2016-12-06T08:03:41.845Z,3.9
2016-12-06T08:04:47.844Z,3.9
2016-12-06T08:05:53.838Z,3.8
2016-12-06T08:06:59.834Z,3.8
2016-12-06T08:08:05.840Z,3.9
2016-12-06T08:09:11.835Z,3.8
2016-12-06T08:10:17.833Z,3.9
2016-12-06T08:11:23.841Z,3.9
2016-12-06T08:12:29.847Z,3.9
2016-12-06T08:13:35.846Z,3.9
2016-12-06T08:14:41.842Z,4
2016-12-06T08:15:47.847Z,4
2016-12-06T08:16:53.849Z,3.9
2016-12-06T08:17:59.855Z,4
2016-12-06T08:19:05.857Z,4
2016-12-06T08:20:11.858Z,4
2016-12-06T08:21:17.853Z,4
2016-12-06T08:22:23.856Z,4
2016-12-06T08:23:29.847Z,4
2016-12-06T08:24:35.847Z,4.1
2016-12-06T08:25:41.847Z,4.1
2016-12-06T08:26:47.844Z,4.1
2016-12-06T08:27:53.851Z,4.1
2016-12-06T08:28:59.854Z,4.1
2016-12-06T08:30:05.857Z,4.2
2016-12-06T08:31:11.852Z,4.2
2016-12-06T08:32:17.854Z,4.2
2016-12-06T08:33:23.104Z,4.2
2016-12-06T08:34:29.100Z,4.3
2016-12-06T08:35:35.098Z,4.3
2016-12-06T08:36:41.101Z,4.3
2016-12-06T08:37:47.103Z,4.3
2016-12-06T08:38:53.107Z,4.3
2016-12-06T08:39:58.352Z,4.3
2016-12-06T08:41:04.351Z,4.4
2016-12-06T08:42:10.357Z,4.3
2016-12-06T08:43:16.361Z,4.4
2016-12-06T08:44:22.362Z,4.4
2016-12-06T08:45:28.366Z,4.4
2016-12-06T08:46:34.365Z,4.3
2016-12-06T08:47:40.364Z,4.4
2016-12-06T08:48:46.363Z,4.3
2016-12-06T08:49:52.367Z,4.3
2016-12-06T08:50:58.362Z,4.3
2016-12-06T08:52:04.361Z,4.3
2016-12-06T08:53:10.354Z,4.3
2016-12-06T08:54:16.362Z,4.3
2016-12-06T08:55:22.359Z,4.3
2016-12-06T08:56:28.358Z,4.2
2016-12-06T08:57:34.360Z,4.2
2016-12-06T08:58:40.365Z,4.3
2016-12-06T08:59:46.358Z,4.3
2016-12-06T09:00:52.357Z,4.3
2016-12-06T09:01:58.352Z,4.3
2016-12-06T09:03:04.352Z,4.4
2016-12-06T09:04:10.351Z,4.5
2016-12-06T09:05:16.349Z,4.5
2016-12-06T09:06:22.350Z,4.5
2016-12-06T09:07:28.359Z,4.5
2016-12-06T09:08:34.345Z,4.5
2016-12-06T09:09:40.360Z,4.5
2016-12-06T09:10:46.356Z,4.5
2016-12-06T09:11:52.353Z,4.5
2016-12-06T09:12:58.346Z,4.6
2016-12-06T09:14:04.354Z,4.6
2016-12-06T09:15:10.347Z,4.6
2016-12-06T09:16:16.343Z,4.6
2016-12-06T09:17:22.339Z,4.6
2016-12-06T09:18:28.339Z,4.7
2016-12-06T09:19:34.335Z,4.8
2016-12-06T09:20:40.371Z,4.8
2016-12-06T09:21:46.368Z,4.8
2016-12-06T09:22:52.441Z,4.8
2016-12-06T09:23:58.418Z,4.7
2016-12-06T09:25:04.411Z,4.7
2016-12-06T09:26:10.407Z,4.7
2016-12-06T09:27:15.310Z,4.7
2016-12-06T09:28:21.309Z,4.8
2016-12-06T09:29:27.313Z,4.9
2016-12-06T09:30:33.313Z,5.1
2016-12-06T09:31:39.315Z,5.1
2016-12-06T09:32:45.334Z,5.2
2016-12-06T09:33:50.344Z,5.2
2016-12-06T09:34:56.391Z,5.3
2016-12-06T09:36:02.395Z,5.4
2016-12-06T09:37:08.398Z,5.7
2016-12-06T09:38:14.391Z,5.7
2016-12-06T09:39:20.397Z,5.5
2016-12-06T09:40:26.399Z,5.4
2016-12-06T09:41:31.651Z,5.3
2016-12-06T09:42:37.649Z,5.3
2016-12-06T09:43:43.653Z,5.3
2016-12-06T09:44:49.676Z,5.3
2016-12-06T09:45:55.674Z,5.3
2016-12-06T09:47:01.670Z,5.3
2016-12-06T09:48:07.672Z,5.3
2016-12-06T09:49:13.674Z,5.3
2016-12-06T09:50:19.682Z,5.3
2016-12-06T09:51:25.678Z,5.3
2016-12-06T09:52:31.852Z,5.1
2016-12-06T09:53:37.727Z,5.2
2016-12-06T09:54:43.722Z,5.2
2016-12-06T09:55:49.722Z,5.2
2016-12-06T09:56:55.726Z,5.2
2016-12-06T09:58:01.729Z,5.3
2016-12-06T09:59:07.732Z,5.3
2016-12-06T10:00:13.901Z,5.2
2016-12-06T10:01:19.732Z,5.2
2016-12-06T10:02:25.726Z,5.2
2016-12-06T10:03:31.725Z,5.4
2016-12-06T10:04:37.728Z,5.4
2016-12-06T10:05:43.726Z,5.4
2016-12-06T10:06:49.723Z,5.4
2016-12-06T10:07:55.726Z,5.4
2016-12-06T10:09:01.730Z,5.3
2016-12-06T10:10:07.726Z,5.3
2016-12-06T10:11:13.725Z,5.3
2016-12-06T10:12:19.730Z,5.3
2016-12-06T10:13:25.733Z,5.4
2016-12-06T10:14:31.732Z,5.4
2016-12-06T10:15:37.733Z,5.4
2016-12-06T10:16:43.731Z,5.5
2016-12-06T10:17:49.739Z,5.4
2016-12-06T10:18:55.737Z,5.5
2016-12-06T10:20:01.738Z,5.4
2016-12-06T10:21:07.731Z,5.4
2016-12-06T10:22:13.735Z,5.5
2016-12-06T10:23:19.734Z,5.5
2016-12-06T10:24:25.730Z,5.5
2016-12-06T10:25:31.741Z,5.5
2016-12-06T10:26:37.735Z,5.5
2016-12-06T10:27:43.734Z,5.5
2016-12-06T10:28:49.734Z,5.4
2016-12-06T10:29:55.743Z,5.5
2016-12-06T10:31:01.738Z,5.5
2016-12-06T10:32:07.736Z,5.5
2016-12-06T10:33:13.735Z,5.5
2016-12-06T10:34:19.741Z,5.5
2016-12-06T10:35:25.740Z,5.4
2016-12-06T10:36:31.734Z,5.4
2016-12-06T10:37:37.743Z,5.5
2016-12-06T10:38:43.746Z,5.5
2016-12-06T10:39:49.750Z,5.5
2016-12-06T10:40:55.738Z,5.6
2016-12-06T10:42:01.753Z,5.6
2016-12-06T10:43:07.750Z,5.7
2016-12-06T10:44:13.753Z,5.7
2016-12-06T10:45:19.741Z,5.5
2016-12-06T10:46:25.747Z,5.5
2016-12-06T10:47:31.747Z,5.5
2016-12-06T10:48:37.751Z,5.5
2016-12-06T10:49:43.758Z,5.6
2016-12-06T10:50:49.772Z,5.5
2016-12-06T10:51:55.765Z,5.5
2016-12-06T10:53:01.766Z,5.5
2016-12-06T10:54:07.768Z,5.4
2016-12-06T10:55:13.766Z,5.5
2016-12-06T10:56:19.763Z,5.5
2016-12-06T10:57:25.768Z,5.5
2016-12-06T10:58:31.765Z,5.6
2016-12-06T10:59:36.671Z,5.7
2016-12-06T11:00:42.674Z,5.7
2016-12-06T11:01:48.665Z,5.6
2016-12-06T11:02:54.666Z,5.6
2016-12-06T11:04:00.669Z,5.6
2016-12-06T11:05:06.667Z,5.6
2016-12-06T11:06:12.789Z,5.7
2016-12-06T11:07:18.797Z,5.6
2016-12-06T11:08:25.076Z,5.6
2016-12-06T11:09:31.073Z,5.6
2016-12-06T11:10:37.072Z,5.5
2016-12-06T11:11:43.075Z,5.5
2016-12-06T11:12:49.069Z,5.5
2016-12-06T11:13:55.179Z,5.6
2016-12-06T11:15:01.176Z,5.7
2016-12-06T11:16:07.178Z,5.8
2016-12-06T11:17:13.175Z,5.8
2016-12-06T11:18:19.170Z,5.9
2016-12-06T11:19:25.167Z,5.9
2016-12-06T11:20:31.162Z,5.9
2016-12-06T11:21:37.261Z,6
2016-12-06T11:22:43.258Z,5.9
2016-12-06T11:23:49.255Z,5.9
2016-12-06T11:24:55.262Z,6
2016-12-06T11:26:01.264Z,6
2016-12-06T11:27:07.261Z,5.8
2016-12-06T11:28:13.261Z,5.9
2016-12-06T11:29:19.260Z,5.9
2016-12-06T11:30:25.258Z,5.9
2016-12-06T11:31:31.253Z,5.9
2016-12-06T11:32:37.354Z,5.8
2016-12-06T11:33:43.352Z,5.9
2016-12-06T11:34:49.351Z,5.9
2016-12-06T11:35:55.352Z,5.8
2016-12-06T11:37:01.358Z,5.7
2016-12-06T11:38:07.356Z,5.8
2016-12-06T11:39:13.358Z,5.8
2016-12-06T11:40:19.357Z,5.8
2016-12-06T11:41:25.354Z,5.7
2016-12-06T11:42:31.349Z,5.7
2016-12-06T11:43:37.352Z,5.8
2016-12-06T11:44:43.345Z,5.9
2016-12-06T11:45:49.353Z,5.8
2016-12-06T11:46:55.355Z,5.7
2016-12-06T11:48:01.347Z,5.7
2016-12-06T11:49:07.337Z,5.6
2016-12-06T11:50:13.339Z,5.7
2016-12-06T11:51:19.341Z,5.6
2016-12-06T11:52:25.331Z,5.6
2016-12-06T11:53:31.340Z,5.6
2016-12-06T11:54:37.341Z,5.6
2016-12-06T11:55:43.339Z,5.6
2016-12-06T11:56:49.342Z,5.7
2016-12-06T11:57:55.349Z,5.7
2016-12-06T11:59:01.345Z,5.8
2016-12-06T12:00:07.350Z,5.7
2016-12-06T12:01:13.340Z,5.7
2016-12-06T12:02:19.338Z,5.7
2016-12-06T12:03:25.335Z,5.7
2016-12-06T12:04:31.336Z,5.8
2016-12-06T12:05:37.334Z,5.8
2016-12-06T12:06:43.336Z,5.8
2016-12-06T12:07:49.325Z,5.8
2016-12-06T12:08:55.322Z,5.8
2016-12-06T12:10:01.334Z,5.9
2016-12-06T12:11:07.329Z,5.9
2016-12-06T12:12:13.325Z,5.8
2016-12-06T12:13:19.317Z,5.9
2016-12-06T12:14:25.332Z,5.8
2016-12-06T12:15:31.330Z,5.8
2016-12-06T12:16:37.328Z,5.7
2016-12-06T12:17:43.335Z,5.7
2016-12-06T12:18:49.340Z,5.7
2016-12-06T12:19:55.337Z,5.7
2016-12-06T12:21:01.339Z,5.7
2016-12-06T12:22:07.342Z,5.7
2016-12-06T12:23:13.338Z,5.7
2016-12-06T12:24:19.655Z,5.7
2016-12-06T12:25:25.530Z,5.8
2016-12-06T12:26:31.529Z,5.7
2016-12-06T12:27:37.519Z,5.7
2016-12-06T12:28:43.522Z,5.7
2016-12-06T12:29:49.524Z,5.8
2016-12-06T12:30:55.526Z,5.8
2016-12-06T12:32:01.518Z,5.7
2016-12-06T12:33:07.517Z,5.6
2016-12-06T12:34:13.519Z,5.6
2016-12-06T12:35:19.524Z,5.6
2016-12-06T12:36:25.527Z,5.6
2016-12-06T12:37:31.524Z,5.7
2016-12-06T12:38:37.524Z,5.7
2016-12-06T12:39:43.526Z,5.8
2016-12-06T12:40:49.523Z,5.8
2016-12-06T12:41:55.518Z,5.8
2016-12-06T12:43:01.519Z,5.8
2016-12-06T12:44:07.527Z,5.8
2016-12-06T12:45:13.532Z,5.8
2016-12-06T12:46:19.531Z,5.8
2016-12-06T12:47:25.532Z,5.7
2016-12-06T12:48:31.535Z,5.7
2016-12-06T12:49:37.529Z,5.7
2016-12-06T12:50:43.526Z,5.7
2016-12-06T12:51:49.530Z,5.8
2016-12-06T12:52:55.530Z,5.8
2016-12-06T12:54:01.536Z,5.8
2016-12-06T12:55:07.534Z,5.8
2016-12-06T12:56:13.541Z,5.9
2016-12-06T12:57:19.546Z,5.9
2016-12-06T12:58:25.541Z,5.9
2016-12-06T12:59:31.537Z,5.8
2016-12-06T13:00:37.539Z,5.8
2016-12-06T13:01:43.533Z,5.7
2016-12-06T13:02:49.527Z,5.6
2016-12-06T13:03:55.529Z,5.6
2016-12-06T13:05:01.541Z,5.6
2016-12-06T13:06:07.541Z,5.6
2016-12-06T13:07:13.537Z,5.7
2016-12-06T13:08:19.536Z,5.7
2016-12-06T13:09:25.543Z,5.8
2016-12-06T13:10:31.543Z,5.8
2016-12-06T13:11:37.544Z,5.8
2016-12-06T13:12:43.544Z,5.8
2016-12-06T13:13:49.540Z,5.8
2016-12-06T13:14:55.542Z,5.8
2016-12-06T13:16:01.546Z,5.8
2016-12-06T13:17:07.553Z,5.8
2016-12-06T13:18:13.540Z,5.7
2016-12-06T13:19:19.542Z,5.7
2016-12-06T13:20:25.536Z,5.7
2016-12-06T13:21:31.543Z,5.6
2016-12-06T13:22:36.446Z,5.6
2016-12-06T13:23:42.444Z,5.6
2016-12-06T13:24:48.443Z,5.5
2016-12-06T13:25:54.452Z,5.6
2016-12-06T13:27:00.443Z,5.6
2016-12-06T13:28:06.442Z,5.6
2016-12-06T13:29:12.440Z,5.5
2016-12-06T13:30:18.448Z,5.6
2016-12-06T13:31:24.453Z,5.6
2016-12-06T13:32:30.453Z,5.6
2016-12-06T13:33:36.451Z,5.6
2016-12-06T13:34:42.456Z,5.6
2016-12-06T13:35:48.446Z,5.7
2016-12-06T13:36:54.451Z,5.7
2016-12-06T13:38:00.462Z,5.6
2016-12-06T13:39:06.455Z,5.6
2016-12-06T13:40:12.449Z,5.7
2016-12-06T13:41:18.453Z,5.8
2016-12-06T13:42:24.452Z,5.7
2016-12-06T13:43:30.454Z,5.7
2016-12-06T13:44:36.452Z,5.7
2016-12-06T13:45:42.452Z,5.7
2016-12-06T13:46:48.454Z,5.7
2016-12-06T13:47:54.448Z,5.7
2016-12-06T13:49:00.454Z,5.7
2016-12-06T13:50:06.449Z,5.7
2016-12-06T13:51:12.446Z,5.7
2016-12-06T13:52:17.694Z,5.7
2016-12-06T13:53:23.699Z,5.6
2016-12-06T13:54:29.703Z,5.5
2016-12-06T13:55:35.697Z,5.5
2016-12-06T13:56:41.698Z,5.4
2016-12-06T13:57:47.697Z,5.5
2016-12-06T13:58:53.691Z,5.5
2016-12-06T13:59:59.688Z,5.5
2016-12-06T14:01:04.597Z,5.5
2016-12-06T14:02:10.601Z,5.5
2016-12-06T14:03:16.649Z,5.5
2016-12-06T14:04:22.724Z,5.4
2016-12-06T14:05:28.709Z,5.5
2016-12-06T14:06:34.712Z,5.6
2016-12-06T14:07:40.711Z,5.5
2016-12-06T14:08:46.707Z,5.6
2016-12-06T14:09:52.703Z,5.6
2016-12-06T14:10:58.707Z,5.6
2016-12-06T14:12:04.702Z,5.5
2016-12-06T14:13:10.702Z,5.5
2016-12-06T14:14:16.702Z,5.5
2016-12-06T14:15:22.711Z,5.5
2016-12-06T14:16:28.698Z,5.5
2016-12-06T14:17:34.699Z,5.5
2016-12-06T14:18:40.700Z,5.5
2016-12-06T14:19:46.700Z,5.5
2016-12-06T14:20:52.702Z,5.5
2016-12-06T14:21:58.707Z,5.5
2016-12-06T14:23:04.700Z,5.4
2016-12-06T14:24:10.708Z,5.4
2016-12-06T14:25:16.709Z,5.4
2016-12-06T14:26:22.716Z,5.4
2016-12-06T14:27:28.714Z,5.4
2016-12-06T14:28:34.709Z,5.4
2016-12-06T14:29:40.752Z,5.4
2016-12-06T14:30:46.747Z,5.4
2016-12-06T14:31:52.754Z,5.5
2016-12-06T14:32:58.757Z,5.4
2016-12-06T14:34:04.760Z,5.4
2016-12-06T14:35:11.051Z,5.4
2016-12-06T14:36:17.055Z,5.4
2016-12-06T14:37:23.058Z,5.4
2016-12-06T14:38:29.053Z,5.4
2016-12-06T14:39:35.048Z,5.3
2016-12-06T14:40:41.057Z,5.3
2016-12-06T14:41:47.056Z,5.3
2016-12-06T14:42:53.055Z,5.2
2016-12-06T14:43:59.050Z,5.2
2016-12-06T14:45:05.052Z,5.2
2016-12-06T14:46:11.055Z,5.2
2016-12-06T14:47:17.054Z,5.1
2016-12-06T14:48:23.052Z,5.1
2016-12-06T14:49:29.050Z,5.2
2016-12-06T14:50:35.049Z,5.1
2016-12-06T14:51:41.289Z,5.1
2016-12-06T14:52:47.287Z,5.1
2016-12-06T14:53:53.291Z,5.1
2016-12-06T14:54:59.295Z,5.1
2016-12-06T14:56:05.289Z,5
2016-12-06T14:57:11.282Z,5
2016-12-06T14:58:17.288Z,5
2016-12-06T14:59:23.291Z,5
2016-12-06T15:00:29.285Z,5
2016-12-06T15:01:35.293Z,5
2016-12-06T15:02:41.299Z,4.9
2016-12-06T15:03:47.304Z,5
2016-12-06T15:04:53.301Z,5
2016-12-06T15:05:59.306Z,5
2016-12-06T15:07:05.302Z,5
2016-12-06T15:08:11.302Z,5
2016-12-06T15:09:17.299Z,4.9
2016-12-06T15:10:23.308Z,5
2016-12-06T15:11:29.327Z,5
2016-12-06T15:12:35.325Z,5
2016-12-06T15:13:41.334Z,5